Time;durP1;ratioP1;P1;durP2;ratioP2;P2;SDS_P1;SDS_P2;PMS_P1;PMS_P2;Temp;Humidity;BMP_temperature;BMP_pressure;BME280_temperature;BME280_humidity;BME280_pressure;Samples;Min_cycle;Max_cycle;Signal;HPM_P1;HPM_P2
2023/12/13 00:02:09;;;;;;;97.88;75.93;;;;;;;;;;5012457;28;20044;-71
2023/12/13 00:04:34;;;;;;;203.40;168.27;;;;;;;;;;5013473;28;20047;-72
2023/12/13 00:07:00;;;;;;;264.27;205.60;;;;;;;;;;5007918;28;20967;-72
2023/12/13 00:09:25;;;;;;;104.85;81.97;;;;;;;;;;5007692;28;20029;-71
2023/12/13 00:11:51;;;;;;;111.45;85.75;;;;;;;;;;5008639;28;20037;-72
2023/12/13 00:14:17;;;;;;;112.00;85.32;;;;;;;;;;5001202;28;20025;-70
2023/12/13 00:16:42;;;;;;;64.85;52.83;;;;;;;;;;5010859;28;20025;-73
2023/12/13 00:19:08;;;;;;;83.28;65.72;;;;;;;;;;5015802;28;20033;-72
2023/12/13 00:21:33;;;;;;;68.03;51.60;;;;;;;;;;5022822;28;20041;-75
2023/12/13 00:23:59;;;;;;;38.10;29.73;;;;;;;;;;5021450;28;20132;-73
2023/12/13 00:26:24;;;;;;;32.17;26.02;;;;;;;;;;5012692;28;20029;-76
2023/12/13 00:28:50;;;;;;;19.60;16.08;;;;;;;;;;5019439;28;20823;-72
2023/12/13 00:31:15;;;;;;;22.38;19.00;;;;;;;;;;5022656;28;20039;-73
2023/12/13 00:33:41;;;;;;;23.40;20.15;;;;;;;;;;5002538;28;20188;-72
2023/12/13 00:36:07;;;;;;;18.55;16.60;;;;;;;;;;5022275;28;20029;-73
2023/12/13 00:38:32;;;;;;;41.47;34.88;;;;;;;;;;5022400;28;20033;-74
2023/12/13 00:40:58;;;;;;;61.00;47.17;;;;;;;;;;5016362;28;21138;-72
2023/12/13 00:43:24;;;;;;;57.17;46.55;;;;;;;;;;5015367;28;20112;-71
2023/12/13 00:45:49;;;;;;;54.60;44.92;;;;;;;;;;5022012;28;20128;-71
2023/12/13 00:48:15;;;;;;;74.75;58.28;;;;;;;;;;5021065;28;20392;-76
2023/12/13 00:50:40;;;;;;;65.57;54.30;;;;;;;;;;5020483;28;20033;-75
2023/12/13 00:53:06;;;;;;;57.55;46.15;;;;;;;;;;5020641;28;20029;-72
2023/12/13 00:55:31;;;;;;;54.53;45.22;;;;;;;;;;5015023;28;20104;-74
2023/12/13 00:57:57;;;;;;;62.50;49.63;;;;;;;;;;5004884;28;20060;-71
2023/12/13 01:00:22;;;;;;;128.10;98.63;;;;;;;;;;5020848;28;20406;-72
2023/12/13 01:02:48;;;;;;;66.25;51.97;;;;;;;;;;5021211;28;20376;-72
2023/12/13 01:05:13;;;;;;;47.80;37.15;;;;;;;;;;5011463;28;20469;-71
2023/12/13 01:07:38;;;;;;;50.92;39.30;;;;;;;;;;5018072;28;20049;-70
2023/12/13 01:12:48;;;;;;;30.77;25.10;;;;;;;;;;5021383;28;20361;-72
2023/12/13 01:20:41;;;;;;;70.32;54.05;;;;;;;;;;5008619;28;20040;-72
2023/12/13 01:23:07;;;;;;;78.70;63.95;;;;;;;;;;5000906;28;20026;-73
2023/12/13 01:25:32;;;;;;;89.35;73.38;;;;;;;;;;5008730;28;20080;-70
2023/12/13 01:27:58;;;;;;;132.63;90.38;;;;;;;;;;5016341;28;20111;-70
2023/12/13 01:30:23;;;;;;;129.02;92.43;;;;;;;;;;5007091;28;20029;-69
2023/12/13 01:32:49;;;;;;;90.28;57.90;;;;;;;;;;5007067;28;20112;-73
2023/12/13 01:35:14;;;;;;;69.80;45.28;;;;;;;;;;5015247;28;20100;-71
2023/12/13 01:37:39;;;;;;;63.80;37.28;;;;;;;;;;5004371;28;20586;-72
2023/12/13 01:40:05;;;;;;;29.33;20.52;;;;;;;;;;5008952;28;20417;-71
2023/12/13 01:42:31;;;;;;;48.95;32.28;;;;;;;;;;5020962;28;20030;-71
2023/12/13 01:44:56;;;;;;;71.72;50.58;;;;;;;;;;4999680;28;20034;-71
2023/12/13 01:47:21;;;;;;;52.45;38.63;;;;;;;;;;5018345;28;20440;-73
2023/12/13 01:49:47;;;;;;;31.42;23.13;;;;;;;;;;5021107;28;20025;-71
2023/12/13 01:52:14;;;;;;;15.07;11.95;;;;;;;;;;5007969;28;20489;-73
2023/12/13 01:54:39;;;;;;;44.78;31.60;;;;;;;;;;5001047;28;20045;-76
2023/12/13 01:57:05;;;;;;;21.25;17.35;;;;;;;;;;5006511;28;20071;-71
2023/12/13 01:59:33;;;;;;;20.55;16.65;;;;;;;;;;5021766;28;20033;-70
2023/12/13 02:01:59;;;;;;;11.95;10.00;;;;;;;;;;5024439;28;20128;-70
2023/12/13 02:04:27;;;;;;;9.35;7.82;;;;;;;;;;5010017;28;20053;-71
2023/12/13 02:06:53;;;;;;;12.05;10.35;;;;;;;;;;5009454;28;20017;-70
2023/12/13 02:09:18;;;;;;;13.60;10.63;;;;;;;;;;5021340;28;20416;-70
2023/12/13 02:11:44;;;;;;;17.50;12.85;;;;;;;;;;5016486;28;20029;-70
2023/12/13 02:14:09;;;;;;;15.07;13.48;;;;;;;;;;5023867;28;20037;-71
2023/12/13 02:16:36;;;;;;;30.00;24.38;;;;;;;;;;5023378;28;20040;-71
2023/12/13 02:19:02;;;;;;;15.85;11.35;;;;;;;;;;5021682;28;20029;-71
2023/12/13 02:21:27;;;;;;;8.63;7.40;;;;;;;;;;5014805;28;20451;-70
2023/12/13 02:23:54;;;;;;;10.65;6.63;;;;;;;;;;5024969;28;20047;-72
2023/12/13 02:26:19;;;;;;;23.13;18.25;;;;;;;;;;5023990;28;20034;-73
2023/12/13 02:28:45;;;;;;;28.88;21.50;;;;;;;;;;5024342;28;20071;-74
2023/12/13 02:31:11;;;;;;;78.05;57.90;;;;;;;;;;5024120;28;20072;-71
2023/12/13 02:33:40;;;;;;;67.65;51.03;;;;;;;;;;5010787;28;20029;-70
2023/12/13 02:36:06;;;;;;;63.60;49.33;;;;;;;;;;5014151;28;20045;-73
2023/12/13 02:38:31;;;;;;;70.00;51.17;;;;;;;;;;5009518;28;20029;-70
2023/12/13 02:40:56;;;;;;;82.65;51.88;;;;;;;;;;5009342;28;20047;-72
2023/12/13 02:43:22;;;;;;;66.32;43.63;;;;;;;;;;5012347;28;20065;-69
2023/12/13 02:45:47;;;;;;;37.08;24.85;;;;;;;;;;5023899;28;20044;-70
2023/12/13 02:48:12;;;;;;;31.13;21.90;;;;;;;;;;5024290;28;20109;-72
2023/12/13 02:50:38;;;;;;;38.45;28.92;;;;;;;;;;5012715;28;20052;-72
2023/12/13 02:53:04;;;;;;;26.88;20.20;;;;;;;;;;5007740;28;20132;-72
2023/12/13 02:55:30;;;;;;;56.80;44.33;;;;;;;;;;5008460;28;21140;-72
2023/12/13 02:57:55;;;;;;;142.18;111.90;;;;;;;;;;5006196;28;20029;-75
2023/12/13 03:00:21;;;;;;;53.28;40.33;;;;;;;;;;5027168;28;20446;-71
2023/12/13 03:02:46;;;;;;;33.90;26.60;;;;;;;;;;5015193;28;20026;-73
2023/12/13 03:05:12;;;;;;;57.28;43.92;;;;;;;;;;5010493;28;20048;-71
2023/12/13 03:07:40;;;;;;;57.38;46.40;;;;;;;;;;5019640;28;20515;-73
2023/12/13 03:10:06;;;;;;;61.17;46.50;;;;;;;;;;5009399;28;20091;-72
2023/12/13 03:12:31;;;;;;;31.83;26.48;;;;;;;;;;5022785;28;20406;-72
2023/12/13 03:14:56;;;;;;;24.73;21.48;;;;;;;;;;5016427;28;20388;-72
2023/12/13 03:17:22;;;;;;;52.60;44.35;;;;;;;;;;5011348;28;20522;-71
2023/12/13 03:19:47;;;;;;;67.32;52.83;;;;;;;;;;5017713;28;20341;-72
2023/12/13 03:22:12;;;;;;;66.20;52.38;;;;;;;;;;5022933;28;20067;-72
2023/12/13 03:24:39;;;;;;;36.88;29.40;;;;;;;;;;5023200;28;20030;-73
2023/12/13 03:27:04;;;;;;;19.77;16.63;;;;;;;;;;5012376;28;20181;-75
2023/12/13 03:29:30;;;;;;;19.80;15.95;;;;;;;;;;5012005;28;20575;-75
2023/12/13 03:31:55;;;;;;;36.38;25.17;;;;;;;;;;5004785;28;20025;-72
2023/12/13 03:34:21;;;;;;;21.65;17.02;;;;;;;;;;5018510;28;20029;-73
2023/12/13 03:36:46;;;;;;;19.73;15.60;;;;;;;;;;5011653;28;20406;-72
2023/12/13 03:39:12;;;;;;;14.73;13.13;;;;;;;;;;5023070;28;20033;-71
2023/12/13 03:41:37;;;;;;;8.35;7.50;;;;;;;;;;5022400;28;20037;-73
2023/12/13 03:44:03;;;;;;;8.57;6.57;;;;;;;;;;5022578;28;20079;-72
2023/12/13 03:46:28;;;;;;;8.15;7.35;;;;;;;;;;5023101;28;20034;-74
2023/12/13 03:48:53;;;;;;;7.15;6.25;;;;;;;;;;5023089;28;20048;-72
2023/12/13 03:51:19;;;;;;;11.00;7.70;;;;;;;;;;5022547;28;20029;-71
2023/12/13 03:53:45;;;;;;;8.35;6.07;;;;;;;;;;5012692;28;20029;-70
2023/12/13 03:56:10;;;;;;;7.97;6.72;;;;;;;;;;5004010;28;20036;-73
2023/12/13 03:58:36;;;;;;;9.38;5.90;;;;;;;;;;5006277;28;20516;-71
2023/12/13 04:01:01;;;;;;;5.43;4.45;;;;;;;;;;5021680;28;20029;-71
2023/12/13 04:03:27;;;;;;;7.20;6.00;;;;;;;;;;5003377;28;20534;-72
2023/12/13 04:05:52;;;;;;;7.25;6.45;;;;;;;;;;5008644;28;20132;-73
2023/12/13 04:08:17;;;;;;;8.00;6.30;;;;;;;;;;5016852;28;20088;-74
2023/12/13 04:10:43;;;;;;;9.65;7.43;;;;;;;;;;5007437;28;20037;-73
2023/12/13 04:13:08;;;;;;;26.88;22.45;;;;;;;;;;5023263;28;20124;-73
2023/12/13 04:15:33;;;;;;;32.67;29.20;;;;;;;;;;5022765;28;20424;-71
2023/12/13 04:17:59;;;;;;;55.58;50.10;;;;;;;;;;5011195;28;20108;-71
2023/12/13 04:20:24;;;;;;;28.77;25.73;;;;;;;;;;5020934;28;20433;-71
2023/12/13 04:22:49;;;;;;;11.32;10.13;;;;;;;;;;5022058;28;20353;-72
2023/12/13 04:25:15;;;;;;;7.97;6.47;;;;;;;;;;5021154;28;20025;-72
2023/12/13 04:27:40;;;;;;;9.05;7.63;;;;;;;;;;5022080;28;20030;-72
2023/12/13 04:30:06;;;;;;;11.73;10.30;;;;;;;;;;5010664;28;20104;-70
2023/12/13 04:32:31;;;;;;;18.23;15.63;;;;;;;;;;5009077;28;20040;-70
2023/12/13 04:34:57;;;;;;;13.25;11.05;;;;;;;;;;5022922;28;20395;-72
2023/12/13 04:37:23;;;;;;;9.88;8.05;;;;;;;;;;5003838;28;20052;-72
2023/12/13 04:39:48;;;;;;;6.80;6.20;;;;;;;;;;5019541;28;20017;-73
2023/12/13 04:42:14;;;;;;;8.07;6.72;;;;;;;;;;5022087;28;20025;-72
2023/12/13 04:44:39;;;;;;;9.40;7.88;;;;;;;;;;5013029;28;20034;-71
2023/12/13 04:47:05;;;;;;;9.30;7.82;;;;;;;;;;5016716;28;20440;-71
2023/12/13 04:49:30;;;;;;;9.25;8.30;;;;;;;;;;4997109;28;20037;-73
2023/12/13 04:51:56;;;;;;;12.18;10.88;;;;;;;;;;5007006;28;20021;-72
2023/12/13 04:54:21;;;;;;;9.25;7.40;;;;;;;;;;5006922;28;21365;-74
2023/12/13 04:56:47;;;;;;;23.65;21.23;;;;;;;;;;5006790;28;20033;-73
2023/12/13 04:59:12;;;;;;;66.00;54.22;;;;;;;;;;5006010;28;20175;-72
2023/12/13 05:01:37;;;;;;;27.13;21.52;;;;;;;;;;4999833;28;20449;-72
2023/12/13 05:04:03;;;;;;;63.65;54.50;;;;;;;;;;5006624;28;20052;-71
2023/12/13 05:06:28;;;;;;;47.70;40.88;;;;;;;;;;5012386;28;20064;-73
2023/12/13 05:08:53;;;;;;;38.42;31.65;;;;;;;;;;5014296;28;20131;-72
2023/12/13 05:11:19;;;;;;;14.48;11.38;;;;;;;;;;5015561;28;20445;-73
2023/12/13 05:13:44;;;;;;;13.98;9.82;;;;;;;;;;5008785;28;20033;-74
2023/12/13 05:16:10;;;;;;;19.15;14.30;;;;;;;;;;5021464;28;20029;-72
2023/12/13 05:18:35;;;;;;;20.77;18.42;;;;;;;;;;5021080;28;20179;-75
2023/12/13 05:21:03;;;;;;;53.00;45.10;;;;;;;;;;5021199;28;20456;-73
2023/12/13 05:23:29;;;;;;;133.73;112.78;;;;;;;;;;5002360;28;20365;-72
2023/12/13 05:25:54;;;;;;;78.60;62.50;;;;;;;;;;5007817;28;20034;-74
2023/12/13 05:28:20;;;;;;;17.58;15.38;;;;;;;;;;5021359;28;20326;-72
2023/12/13 05:30:45;;;;;;;37.15;30.85;;;;;;;;;;5006896;28;20036;-73
2023/12/13 05:33:11;;;;;;;22.38;17.75;;;;;;;;;;5011149;28;20404;-72
2023/12/13 05:35:36;;;;;;;38.45;29.88;;;;;;;;;;5024722;28;20040;-72
2023/12/13 05:38:01;;;;;;;22.45;16.88;;;;;;;;;;5025355;28;20025;-74
2023/12/13 05:40:27;;;;;;;19.15;16.13;;;;;;;;;;5025463;28;20021;-71
2023/12/13 05:42:53;;;;;;;20.20;15.95;;;;;;;;;;5020843;28;20232;-73
2023/12/13 05:45:18;;;;;;;22.45;17.58;;;;;;;;;;5006737;28;20460;-73
2023/12/13 05:47:43;;;;;;;49.47;34.58;;;;;;;;;;5012979;28;20041;-72
2023/12/13 05:50:09;;;;;;;34.50;26.20;;;;;;;;;;5010904;28;20030;-71
2023/12/13 05:52:36;;;;;;;38.05;29.88;;;;;;;;;;5024447;28;20387;-72
2023/12/13 05:55:02;;;;;;;40.85;32.05;;;;;;;;;;5024627;28;20029;-71
2023/12/13 05:57:27;;;;;;;32.30;24.45;;;;;;;;;;5024705;28;20026;-72
2023/12/13 05:59:52;;;;;;;73.18;52.45;;;;;;;;;;5025096;28;20456;-71
2023/12/13 06:02:18;;;;;;;63.90;45.45;;;;;;;;;;5005730;28;20037;-71
2023/12/13 06:04:43;;;;;;;56.63;40.95;;;;;;;;;;5024772;28;20037;-74
2023/12/13 06:07:09;;;;;;;42.78;30.15;;;;;;;;;;5009289;28;20069;-73
2023/12/13 06:09:34;;;;;;;45.30;33.90;;;;;;;;;;5016089;28;20107;-72
2023/12/13 06:12:00;;;;;;;40.83;28.33;;;;;;;;;;5013581;28;20460;-73
2023/12/13 06:14:25;;;;;;;21.52;15.15;;;;;;;;;;5023684;28;20332;-72
2023/12/13 06:16:50;;;;;;;28.65;23.08;;;;;;;;;;5004860;28;20040;-73
2023/12/13 06:19:16;;;;;;;146.32;62.60;;;;;;;;;;5017763;28;20047;-73
2023/12/13 06:21:41;;;;;;;133.02;57.28;;;;;;;;;;5024414;28;20461;-72
2023/12/13 06:24:06;;;;;;;130.10;65.30;;;;;;;;;;5014841;28;20061;-73
2023/12/13 06:26:32;;;;;;;116.75;47.72;;;;;;;;;;4998286;28;20123;-72
2023/12/13 06:28:57;;;;;;;75.38;34.03;;;;;;;;;;5011111;28;20041;-76
2023/12/13 06:31:23;;;;;;;118.53;47.05;;;;;;;;;;5022538;28;20332;-75
2023/12/13 06:33:48;;;;;;;292.58;188.40;;;;;;;;;;5007508;28;20128;-75
2023/12/13 06:36:14;;;;;;;88.18;44.22;;;;;;;;;;5023137;28;20352;-70
2023/12/13 06:38:40;;;;;;;100.05;48.28;;;;;;;;;;5013250;28;20090;-71
2023/12/13 06:41:05;;;;;;;114.18;92.38;;;;;;;;;;5021485;28;20057;-71
2023/12/13 06:43:31;;;;;;;38.17;26.17;;;;;;;;;;5024089;28;20080;-73
2023/12/13 06:45:56;;;;;;;52.28;31.10;;;;;;;;;;5021340;28;20087;-71
2023/12/13 06:48:21;;;;;;;77.05;51.70;;;;;;;;;;5024841;28;20456;-72
2023/12/13 06:50:48;;;;;;;58.53;30.80;;;;;;;;;;5024517;28;20397;-74
2023/12/13 06:53:13;;;;;;;39.97;24.90;;;;;;;;;;5023621;28;20516;-75
2023/12/13 06:55:39;;;;;;;70.93;52.72;;;;;;;;;;5023716;28;20144;-72
2023/12/13 06:58:04;;;;;;;45.72;36.67;;;;;;;;;;5023660;28;20099;-70
2023/12/13 07:00:29;;;;;;;45.00;35.38;;;;;;;;;;5023763;28;20021;-72
2023/12/13 07:02:54;;;;;;;41.08;32.05;;;;;;;;;;5023705;28;20068;-70
2023/12/13 07:05:20;;;;;;;54.42;42.45;;;;;;;;;;5010211;28;20052;-71
2023/12/13 07:07:47;;;;;;;114.85;87.43;;;;;;;;;;5023566;28;20053;-72
2023/12/13 07:10:12;;;;;;;76.07;57.28;;;;;;;;;;5023952;28;20451;-72
2023/12/13 07:12:38;;;;;;;256.70;212.98;;;;;;;;;;5022813;28;20041;-72
2023/12/13 07:15:03;;;;;;;114.85;90.45;;;;;;;;;;5023617;28;20290;-71
2023/12/13 07:17:29;;;;;;;131.77;103.63;;;;;;;;;;5023478;28;20120;-72
2023/12/13 07:19:54;;;;;;;68.95;57.60;;;;;;;;;;5019387;28;20530;-71
2023/12/13 07:22:19;;;;;;;58.15;48.35;;;;;;;;;;5013831;28;20104;-72
2023/12/13 07:24:46;;;;;;;67.18;56.47;;;;;;;;;;5022966;28;20119;-74
2023/12/13 07:27:11;;;;;;;40.95;35.30;;;;;;;;;;5022375;28;20507;-77
2023/12/13 07:29:36;;;;;;;41.70;33.25;;;;;;;;;;5022892;28;20033;-71
2023/12/13 07:32:04;;;;;;;43.95;36.78;;;;;;;;;;5023127;28;20030;-75
2023/12/13 07:34:29;;;;;;;74.93;52.22;;;;;;;;;;5022736;28;20115;-73
2023/12/13 07:36:54;;;;;;;88.68;64.70;;;;;;;;;;5009269;28;20349;-71
2023/12/13 07:39:20;;;;;;;104.43;65.07;;;;;;;;;;5023023;28;20032;-71
2023/12/13 07:41:46;;;;;;;44.97;33.13;;;;;;;;;;5023042;28;20040;-73
2023/12/13 07:44:12;;;;;;;56.92;41.95;;;;;;;;;;5022682;28;20352;-71
2023/12/13 07:46:38;;;;;;;40.15;30.08;;;;;;;;;;5023437;28;20577;-73
2023/12/13 07:49:03;;;;;;;38.45;29.23;;;;;;;;;;5022243;28;20292;-72
2023/12/13 07:51:30;;;;;;;43.00;35.42;;;;;;;;;;5022570;28;20029;-71
2023/12/13 07:53:55;;;;;;;47.00;38.38;;;;;;;;;;5022694;28;20468;-75
2023/12/13 07:56:21;;;;;;;55.30;44.65;;;;;;;;;;5022601;28;20029;-74
2023/12/13 07:58:46;;;;;;;89.97;68.25;;;;;;;;;;5022385;28;20029;-76
2023/12/13 08:01:14;;;;;;;52.60;38.38;;;;;;;;;;5020622;28;20432;-73
2023/12/13 08:03:39;;;;;;;63.20;46.88;;;;;;;;;;5011470;28;20393;-71
2023/12/13 08:06:10;;;;;;;95.85;67.78;;;;;;;;;;5021689;28;20037;-73
2023/12/13 08:08:35;;;;;;;106.43;80.18;;;;;;;;;;5022379;28;20480;-72
2023/12/13 08:11:00;;;;;;;87.45;68.63;;;;;;;;;;5022295;28;20021;-73
2023/12/13 08:13:26;;;;;;;61.53;48.95;;;;;;;;;;5011728;28;20083;-74
2023/12/13 08:15:51;;;;;;;68.70;54.38;;;;;;;;;;5022811;28;20045;-73
2023/12/13 08:18:17;;;;;;;36.05;28.60;;;;;;;;;;5014860;28;20029;-71
2023/12/13 08:20:42;;;;;;;48.55;34.95;;;;;;;;;;5008483;28;20630;-73
2023/12/13 08:23:07;;;;;;;22.88;20.02;;;;;;;;;;5018496;28;20568;-72
2023/12/13 08:25:33;;;;;;;44.17;36.13;;;;;;;;;;5021468;28;20411;-73
2023/12/13 08:27:58;;;;;;;43.15;33.95;;;;;;;;;;5020996;28;20043;-74
2023/12/13 08:30:23;;;;;;;40.45;33.33;;;;;;;;;;5021251;28;20021;-73
2023/12/13 08:32:49;;;;;;;29.98;25.00;;;;;;;;;;5010994;28;20124;-72
2023/12/13 08:35:14;;;;;;;39.13;29.98;;;;;;;;;;5021469;28;20356;-73
2023/12/13 08:37:40;;;;;;;25.65;20.85;;;;;;;;;;5021613;28;20029;-74
2023/12/13 08:40:05;;;;;;;45.72;32.28;;;;;;;;;;5009698;28;20075;-75
2023/12/13 08:42:31;;;;;;;24.15;18.73;;;;;;;;;;5022138;28;20350;-72
2023/12/13 08:44:56;;;;;;;30.08;22.23;;;;;;;;;;5021919;28;20254;-73
2023/12/13 08:47:22;;;;;;;28.45;22.33;;;;;;;;;;5021410;28;20084;-72
2023/12/13 08:49:48;;;;;;;40.42;30.30;;;;;;;;;;5010396;28;20117;-73
2023/12/13 08:52:16;;;;;;;31.70;24.38;;;;;;;;;;5022209;28;20025;-73
2023/12/13 08:54:41;;;;;;;20.88;16.60;;;;;;;;;;5020557;28;20029;-74
2023/12/13 08:57:06;;;;;;;19.73;13.98;;;;;;;;;;5021713;28;20033;-73
2023/12/13 08:59:32;;;;;;;19.75;16.85;;;;;;;;;;5021175;28;20030;-73
2023/12/13 09:01:57;;;;;;;21.23;18.98;;;;;;;;;;5022274;28;20025;-72
2023/12/13 09:04:22;;;;;;;17.25;14.57;;;;;;;;;;5021472;28;20091;-72
2023/12/13 09:06:48;;;;;;;15.13;12.57;;;;;;;;;;5022030;28;20044;-73
2023/12/13 09:09:14;;;;;;;16.15;14.45;;;;;;;;;;5021430;28;20076;-73
2023/12/13 09:11:39;;;;;;;11.02;9.77;;;;;;;;;;5021071;28;20029;-73
2023/12/13 09:14:05;;;;;;;13.98;12.15;;;;;;;;;;5013149;28;20029;-75
2023/12/13 09:16:30;;;;;;;24.08;21.23;;;;;;;;;;5018700;28;20029;-73
2023/12/13 09:18:55;;;;;;;16.52;14.32;;;;;;;;;;5005748;28;20051;-71
2023/12/13 09:21:22;;;;;;;13.52;12.23;;;;;;;;;;5006504;28;20059;-72
2023/12/13 09:23:47;;;;;;;13.57;12.20;;;;;;;;;;5007657;28;20033;-73
2023/12/13 09:26:13;;;;;;;20.60;15.95;;;;;;;;;;5020645;28;20033;-76
2023/12/13 09:28:39;;;;;;;17.55;11.77;;;;;;;;;;5021319;28;20053;-75
2023/12/13 09:31:05;;;;;;;13.38;11.00;;;;;;;;;;5021899;28;20033;-72
2023/12/13 09:33:31;;;;;;;13.70;12.27;;;;;;;;;;5021375;28;20100;-75
2023/12/13 09:35:56;;;;;;;18.45;16.00;;;;;;;;;;5021734;28;20432;-73
2023/12/13 09:38:21;;;;;;;26.45;20.27;;;;;;;;;;5021511;28;20330;-72
2023/12/13 09:40:48;;;;;;;17.98;14.63;;;;;;;;;;5021599;28;20387;-75
2023/12/13 09:43:14;;;;;;;18.42;14.60;;;;;;;;;;5021635;28;20467;-74
2023/12/13 09:45:40;;;;;;;15.85;14.00;;;;;;;;;;5010606;28;20033;-72
2023/12/13 09:48:07;;;;;;;16.05;11.55;;;;;;;;;;5018163;28;20083;-73
2023/12/13 09:50:34;;;;;;;15.10;12.63;;;;;;;;;;5021135;28;20041;-71
2023/12/13 09:53:00;;;;;;;19.30;13.82;;;;;;;;;;5021194;28;20029;-71
2023/12/13 09:55:25;;;;;;;15.82;13.75;;;;;;;;;;5021394;28;20021;-71
2023/12/13 09:57:51;;;;;;;29.10;21.20;;;;;;;;;;5020448;28;20036;-71
2023/12/13 10:00:16;;;;;;;22.92;18.15;;;;;;;;;;5019637;28;20040;-72
2023/12/13 10:02:42;;;;;;;16.75;14.07;;;;;;;;;;5021621;28;20116;-71
2023/12/13 10:05:09;;;;;;;23.27;17.73;;;;;;;;;;5021341;28;20034;-70
2023/12/13 10:07:35;;;;;;;23.40;19.85;;;;;;;;;;5019455;28;20089;-72
2023/12/13 10:10:00;;;;;;;18.95;16.05;;;;;;;;;;5021157;28;20428;-71
2023/12/13 10:12:26;;;;;;;18.20;15.60;;;;;;;;;;5020967;28;20045;-70
2023/12/13 10:14:51;;;;;;;24.52;20.42;;;;;;;;;;5020219;28;20033;-71
2023/12/13 10:17:20;;;;;;;32.45;28.13;;;;;;;;;;5016364;28;20033;-71
2023/12/13 10:19:47;;;;;;;23.80;19.85;;;;;;;;;;5011556;28;20112;-71
2023/12/13 10:22:12;;;;;;;28.02;21.65;;;;;;;;;;5024287;28;20116;-72
2023/12/13 10:24:37;;;;;;;25.85;20.60;;;;;;;;;;5022611;28;20112;-71
2023/12/13 10:27:03;;;;;;;20.98;16.73;;;;;;;;;;5024930;28;20064;-71
2023/12/13 10:29:30;;;;;;;38.42;29.08;;;;;;;;;;5024729;28;20864;-73
2023/12/13 10:31:56;;;;;;;22.17;19.77;;;;;;;;;;5024591;28;20109;-72
2023/12/13 10:34:22;;;;;;;15.25;12.20;;;;;;;;;;5024032;28;20057;-71
2023/12/13 10:36:48;;;;;;;12.73;10.55;;;;;;;;;;5024689;28;20115;-71
2023/12/13 10:39:15;;;;;;;12.82;10.57;;;;;;;;;;5024510;28;20180;-75
2023/12/13 10:41:44;;;;;;;27.27;23.15;;;;;;;;;;5024765;28;20508;-72
2023/12/13 10:44:10;;;;;;;14.85;12.05;;;;;;;;;;5024449;28;20021;-72
2023/12/13 10:46:35;;;;;;;16.23;13.48;;;;;;;;;;5023692;28;20658;-74
2023/12/13 10:49:03;;;;;;;27.88;22.75;;;;;;;;;;5024176;28;20025;-74
2023/12/13 10:51:29;;;;;;;17.75;15.85;;;;;;;;;;5023443;28;20145;-72
2023/12/13 10:53:55;;;;;;;27.67;19.50;;;;;;;;;;5023399;28;20113;-74
2023/12/13 10:56:21;;;;;;;26.13;22.23;;;;;;;;;;5007353;28;20080;-73
2023/12/13 10:58:47;;;;;;;27.55;23.65;;;;;;;;;;5023053;28;20107;-71
2023/12/13 11:01:12;;;;;;;20.50;17.75;;;;;;;;;;5024671;28;20033;-74
2023/12/13 11:03:47;;;;;;;17.55;14.50;;;;;;;;;;5023958;28;20448;-72
2023/12/13 11:06:14;;;;;;;13.75;10.98;;;;;;;;;;5023502;28;20041;-73
2023/12/13 11:08:40;;;;;;;20.60;15.05;;;;;;;;;;5022257;28;20045;-72
2023/12/13 11:11:11;;;;;;;16.30;12.60;;;;;;;;;;5023127;28;20094;-72
2023/12/13 11:13:49;;;;;;;15.30;12.05;;;;;;;;;;5022353;28;20047;-72
2023/12/13 11:16:20;;;;;;;15.05;13.45;;;;;;;;;;5024110;28;20079;-73
2023/12/13 11:18:46;;;;;;;19.30;17.30;;;;;;;;;;5023448;28;20044;-72
2023/12/13 11:21:21;;;;;;;16.98;15.18;;;;;;;;;;5023915;28;20393;-71
2023/12/13 11:23:47;;;;;;;32.97;22.50;;;;;;;;;;5024160;28;20079;-72
2023/12/13 11:26:14;;;;;;;25.58;18.40;;;;;;;;;;5023185;28;20060;-72
2023/12/13 11:28:40;;;;;;;32.95;23.10;;;;;;;;;;5023594;28;20408;-72
2023/12/13 11:31:10;;;;;;;86.18;42.92;;;;;;;;;;5022989;28;20056;-72
2023/12/13 11:33:35;;;;;;;32.55;16.20;;;;;;;;;;5023494;28;20075;-73
2023/12/13 11:36:00;;;;;;;9.38;6.65;;;;;;;;;;5023078;28;20056;-72
2023/12/13 11:38:26;;;;;;;4.45;3.72;;;;;;;;;;5023235;28;20033;-73
2023/12/13 11:40:51;;;;;;;4.85;4.30;;;;;;;;;;5005839;28;20034;-73
2023/12/13 11:43:17;;;;;;;19.30;10.23;;;;;;;;;;5023437;28;20167;-75
2023/12/13 11:45:49;;;;;;;13.15;9.63;;;;;;;;;;5023018;28;20418;-71
2023/12/13 11:48:14;;;;;;;11.90;10.52;;;;;;;;;;5023086;28;20805;-73
2023/12/13 11:50:40;;;;;;;11.20;10.07;;;;;;;;;;5022919;28;20021;-72
2023/12/13 11:53:09;;;;;;;15.55;11.90;;;;;;;;;;5022538;28;20032;-73
2023/12/13 11:55:36;;;;;;;50.05;29.45;;;;;;;;;;5023039;28;20451;-74
2023/12/13 11:58:03;;;;;;;47.25;39.75;;;;;;;;;;5023361;28;20033;-72
2023/12/13 12:00:28;;;;;;;17.73;15.93;;;;;;;;;;5023326;28;20061;-74
2023/12/13 12:02:54;;;;;;;18.85;15.02;;;;;;;;;;5023050;28;20060;-75
2023/12/13 12:05:21;;;;;;;17.58;14.65;;;;;;;;;;5023003;28;20053;-72
2023/12/13 12:07:54;;;;;;;22.35;17.92;;;;;;;;;;5023179;28;20045;-71
2023/12/13 12:10:20;;;;;;;22.95;17.73;;;;;;;;;;5021514;28;20095;-73
2023/12/13 12:12:48;;;;;;;33.22;23.85;;;;;;;;;;5023519;28;20029;-71
2023/12/13 12:15:15;;;;;;;23.23;20.05;;;;;;;;;;5021978;28;20401;-73
2023/12/13 12:17:41;;;;;;;22.52;18.30;;;;;;;;;;5023830;28;20333;-71
2023/12/13 12:20:07;;;;;;;13.02;9.43;;;;;;;;;;5022730;28;20029;-73
2023/12/13 12:22:35;;;;;;;18.67;14.82;;;;;;;;;;5022405;28;20099;-72
2023/12/13 12:25:00;;;;;;;14.98;11.73;;;;;;;;;;5022441;28;20029;-72
2023/12/13 12:27:26;;;;;;;10.95;8.27;;;;;;;;;;5021669;28;20091;-74
2023/12/13 12:29:52;;;;;;;37.60;28.52;;;;;;;;;;5021593;28;20087;-75
2023/12/13 12:32:17;;;;;;;43.40;32.78;;;;;;;;;;5022563;28;20040;-72
2023/12/13 12:34:47;;;;;;;32.22;24.17;;;;;;;;;;5022092;28;20425;-73
2023/12/13 12:37:12;;;;;;;;;;;;;;;;;;5022621;28;20138;-72
2023/12/13 12:39:37;;;;;;;5.77;4.10;;;;;;;;;;5022314;28;20982;-73
2023/12/13 12:42:03;;;;;;;6.13;5.07;;;;;;;;;;5021698;28;20029;-73
2023/12/13 12:44:28;;;;;;;12.48;10.27;;;;;;;;;;5021888;28;20073;-71
2023/12/13 12:46:54;;;;;;;33.17;27.02;;;;;;;;;;5021546;28;20033;-72
2023/12/13 12:49:19;;;;;;;47.90;38.17;;;;;;;;;;5021909;28;20025;-73
2023/12/13 12:51:45;;;;;;;39.95;31.30;;;;;;;;;;5022231;28;20036;-76
2023/12/13 12:54:10;;;;;;;15.35;12.45;;;;;;;;;;5019516;28;20049;-72
2023/12/13 12:56:36;;;;;;;12.07;10.00;;;;;;;;;;5021266;28;20447;-73
2023/12/13 12:59:03;;;;;;;16.15;14.45;;;;;;;;;;5021799;28;20033;-71
2023/12/13 13:01:29;;;;;;;4.15;3.75;;;;;;;;;;5021611;28;20116;-74
2023/12/13 13:03:54;;;;;;;17.63;15.55;;;;;;;;;;5021557;28;20108;-73
2023/12/13 13:06:20;;;;;;;17.80;15.90;;;;;;;;;;5022437;28;20052;-74
2023/12/13 13:08:45;;;;;;;11.45;9.80;;;;;;;;;;5020791;28;20051;-74
2023/12/13 13:11:11;;;;;;;9.38;7.93;;;;;;;;;;5021818;28;20460;-73
2023/12/13 13:13:37;;;;;;;19.05;14.82;;;;;;;;;;5021657;28;20036;-74
2023/12/13 13:16:02;;;;;;;12.40;10.48;;;;;;;;;;5021812;28;20029;-72
2023/12/13 13:18:28;;;;;;;12.27;9.98;;;;;;;;;;5021777;28;20124;-73
2023/12/13 13:20:55;;;;;;;28.92;24.27;;;;;;;;;;5022083;28;20029;-73
2023/12/13 13:23:20;;;;;;;12.48;11.18;;;;;;;;;;5021701;28;20362;-72
2023/12/13 13:25:45;;;;;;;10.90;9.75;;;;;;;;;;5013206;28;20029;-73
2023/12/13 13:28:11;;;;;;;7.10;5.90;;;;;;;;;;5006123;28;20025;-74
2023/12/13 13:30:37;;;;;;;12.77;11.00;;;;;;;;;;5006257;28;20029;-74
2023/12/13 13:33:02;;;;;;;18.60;16.15;;;;;;;;;;5006743;28;20025;-71
2023/12/13 13:35:28;;;;;;;15.25;13.52;;;;;;;;;;5006727;28;20035;-71
2023/12/13 13:37:53;;;;;;;13.27;11.80;;;;;;;;;;5005197;28;20032;-71
2023/12/13 13:40:18;;;;;;;26.27;17.90;;;;;;;;;;5004872;28;20029;-72
2023/12/13 13:42:44;;;;;;;13.25;11.18;;;;;;;;;;5007219;28;20113;-70
2023/12/13 13:45:10;;;;;;;27.00;21.48;;;;;;;;;;5006350;28;20107;-71
2023/12/13 13:47:36;;;;;;;21.58;19.10;;;;;;;;;;5006238;28;20087;-74
2023/12/13 13:50:03;;;;;;;29.27;18.42;;;;;;;;;;5005994;28;20055;-72
2023/12/13 13:52:29;;;;;;;35.63;24.17;;;;;;;;;;5005404;28;20032;-71
2023/12/13 13:54:55;;;;;;;84.15;45.65;;;;;;;;;;5007622;28;20026;-70
2023/12/13 13:57:20;;;;;;;61.60;33.00;;;;;;;;;;5009098;28;20559;-74
2023/12/13 13:59:46;;;;;;;46.63;23.45;;;;;;;;;;5009982;28;20025;-73
2023/12/13 14:02:15;;;;;;;17.25;10.05;;;;;;;;;;5018741;28;20440;-73
2023/12/13 14:04:40;;;;;;;92.85;51.55;;;;;;;;;;5024524;28;20033;-73
2023/12/13 14:07:05;;;;;;;12.10;10.77;;;;;;;;;;5024764;28;20097;-72
2023/12/13 14:09:33;;;;;;;20.08;15.57;;;;;;;;;;5023730;28;20049;-71
2023/12/13 14:11:58;;;;;;;29.00;24.70;;;;;;;;;;5025171;28;20025;-73
2023/12/13 14:14:23;;;;;;;179.50;62.83;;;;;;;;;;5024616;28;20033;-71
2023/12/13 14:16:49;;;;;;;148.98;52.42;;;;;;;;;;5022675;28;20025;-72
2023/12/13 14:19:14;;;;;;;204.60;72.10;;;;;;;;;;5025094;28;20024;-73